Time;durP1;ratioP1;P1;durP2;ratioP2;P2;SDS_P1;SDS_P2;PMS_P1;PMS_P2;Temp;Humidity;BMP_temperature;BMP_pressure;BME280_temperature;BME280_humidity;BME280_pressure;Samples;Min_cycle;Max_cycle;Signal;HPM_P1;HPM_P2
2022/10/20 00:01:56;;;;;;;7.10;3.90;;;;;;;5.72;86.02;101677.71;105364;1290;71378;-84
2022/10/20 00:04:22;;;;;;;8.50;4.00;;;;;;;5.67;86.01;101669.50;105390;1296;59658;-84
2022/10/20 00:06:49;;;;;;;7.70;3.80;;;;;;;5.62;86.01;101657.27;105435;1290;59757;-85
2022/10/20 00:09:15;;;;;;;8.20;4.10;;;;;;;5.58;86.16;101650.93;105323;1299;58962;-84
2022/10/20 00:11:44;;;;;;;9.40;4.20;;;;;;;5.53;86.31;101649.38;105240;1289;69558;-85
2022/10/20 00:14:11;;;;;;;7.90;4.00;;;;;;;5.49;86.26;101649.36;105264;1292;71335;-85
2022/10/20 00:16:38;;;;;;;8.40;4.30;;;;;;;5.44;86.31;101649.04;105176;1298;61014;-84
2022/10/20 00:19:05;;;;;;;5.50;3.60;;;;;;;5.39;86.34;101646.43;105325;1289;59128;-84
2022/10/20 00:21:32;;;;;;;9.40;4.00;;;;;;;5.34;86.37;101642.96;105386;1296;73691;-85
2022/10/20 00:24:00;;;;;;;7.70;4.00;;;;;;;5.29;86.59;101640.34;105352;1298;70609;-84
2022/10/20 00:26:28;;;;;;;6.70;3.90;;;;;;;5.24;86.75;101640.39;105203;1293;72577;-84
2022/10/20 00:28:56;;;;;;;8.60;4.20;;;;;;;5.18;86.76;101637.50;105251;1297;58785;-85
2022/10/20 00:31:23;;;;;;;8.00;3.90;;;;;;;5.14;87.02;101629.26;105400;1288;59454;-85
2022/10/20 00:33:50;;;;;;;6.80;3.80;;;;;;;5.08;87.02;101621.10;105376;1297;73881;-85
2022/10/20 00:36:19;;;;;;;6.90;4.20;;;;;;;5.03;87.02;101613.96;105281;1297;70581;-85
2022/10/20 00:38:45;;;;;;;10.00;4.20;;;;;;;4.98;87.15;101599.77;105276;1291;73161;-84
2022/10/20 00:41:17;;;;;;;9.10;4.10;;;;;;;4.94;87.27;101596.27;105232;1294;62121;-85
2022/10/20 00:43:51;;;;;;;6.90;3.80;;;;;;;4.87;87.35;101595.33;105465;1298;60758;-85
2022/10/20 00:46:25;;;;;;;7.40;4.10;;;;;;;4.82;87.38;101599.92;105424;1290;73825;-85
2022/10/20 00:48:56;;;;;;;7.10;4.10;;;;;;;4.76;87.57;101592.27;105472;1296;71095;-85
2022/10/20 00:51:27;;;;;;;8.40;4.40;;;;;;;4.74;88.03;101585.10;105436;1296;70833;-85
2022/10/20 00:54:01;;;;;;;8.30;4.00;;;;;;;4.71;88.24;101579.16;105696;1290;59684;-85
2022/10/20 00:56:28;;;;;;;8.70;4.30;;;;;;;4.67;88.32;101575.22;105555;1297;60285;-85
2022/10/20 00:58:55;;;;;;;8.20;4.30;;;;;;;4.65;88.30;101575.59;105341;1297;73744;-85
2022/10/20 01:01:21;;;;;;;6.60;4.30;;;;;;;4.63;88.60;101572.80;105292;1297;69041;-85
2022/10/20 01:03:50;;;;;;;8.70;4.60;;;;;;;4.61;88.85;101573.41;105406;1290;71398;-85
2022/10/20 01:06:19;;;;;;;7.90;4.90;;;;;;;4.61;89.15;101572.06;105254;1297;59682;-85
2022/10/20 01:08:45;;;;;;;7.60;4.60;;;;;;;4.61;89.59;101574.14;105417;1290;60495;-84
2022/10/20 01:11:38;;;;;;;10.00;5.30;;;;;;;4.62;89.48;101580.76;105347;1295;74618;-85
2022/10/20 01:14:23;;;;;;;8.70;5.50;;;;;;;4.61;89.58;101579.23;105398;1304;69429;-85
2022/10/20 01:17:10;;;;;;;10.80;5.30;;;;;;;4.61;89.81;101577.46;105222;1299;73748;-85
2022/10/20 01:19:55;;;;;;;8.00;4.90;;;;;;;4.61;89.76;101567.32;105333;1297;61299;-85
2022/10/20 01:22:53;;;;;;;9.00;5.30;;;;;;;4.60;89.73;101559.48;105413;1297;61293;-85
2022/10/20 01:25:49;;;;;;;8.70;4.70;;;;;;;4.60;89.75;101559.01;105459;1295;75862;-84
2022/10/20 01:28:46;;;;;;;10.50;5.40;;;;;;;4.59;89.87;101552.79;105401;1296;71480;-85
2022/10/20 01:31:39;;;;;;;11.40;5.30;;;;;;;4.58;89.92;101549.83;105341;1297;72377;-85
2022/10/20 01:34:12;;;;;;;8.90;5.00;;;;;;;4.56;89.86;101544.16;105418;1295;59905;-85
2022/10/20 01:36:50;;;;;;;10.90;4.80;;;;;;;4.55;89.81;101543.39;105453;1297;59511;-85
2022/10/20 01:39:26;;;;;;;9.70;4.90;;;;;;;4.55;90.07;101548.52;105242;1296;73335;-85
2022/10/20 01:41:59;;;;;;;7.90;4.80;;;;;;;4.53;90.02;101544.80;105262;1292;70340;-85
2022/10/20 01:44:28;;;;;;;10.60;5.10;;;;;;;4.52;90.22;101542.80;105211;1300;72977;-85
2022/10/20 01:46:57;;;;;;;10.20;5.40;;;;;;;4.51;90.41;101541.98;105122;1299;59115;-85
2022/10/20 01:49:25;;;;;;;11.10;5.00;;;;;;;4.50;90.42;101542.23;105282;1296;59136;-84
2022/10/20 01:51:52;;;;;;;9.80;5.00;;;;;;;4.50;90.65;101540.48;105264;1296;73129;-84
2022/10/20 01:54:23;;;;;;;9.20;4.90;;;;;;;4.51;90.71;101538.16;105308;1296;71253;-84
2022/10/20 01:57:13;;;;;;;9.70;5.40;;;;;;;4.50;90.67;101534.30;105149;1300;71166;-84
2022/10/20 01:59:43;;;;;;;9.60;5.40;;;;;;;4.51;90.83;101530.25;105253;1297;59307;-84
2022/10/20 02:02:38;;;;;;;10.30;5.30;;;;;;;4.50;90.63;101532.04;105301;1296;60214;-85
2022/10/20 02:05:23;;;;;;;9.50;4.70;;;;;;;4.48;90.63;101522.86;105319;1296;73713;-84
2022/10/20 02:07:51;;;;;;;6.70;5.00;;;;;;;4.47;90.60;101512.96;105342;1290;69550;-84
2022/10/20 02:10:23;;;;;;;8.50;5.10;;;;;;;4.45;90.57;101507.52;105176;1300;71121;-84
2022/10/20 02:12:55;;;;;;;8.90;4.80;;;;;;;4.44;90.66;101506.05;105346;1302;59804;-85
2022/10/20 02:15:26;;;;;;;7.30;4.80;;;;;;;4.43;90.82;101506.07;105211;1290;59043;-84
2022/10/20 02:17:59;;;;;;;9.10;5.40;;;;;;;4.44;90.97;101503.93;104990;1297;73127;-84
2022/10/20 02:20:28;;;;;;;8.20;5.20;;;;;;;4.46;91.40;101511.86;105111;1306;71158;-84
2022/10/20 02:22:56;;;;;;;8.00;5.10;;;;;;;4.47;91.65;101515.75;105208;1298;72637;-85
2022/10/20 02:25:26;;;;;;;8.70;5.50;;;;;;;4.48;91.51;101516.56;105165;1305;59430;-84
2022/10/20 02:27:55;;;;;;;7.60;4.80;;;;;;;4.49;91.46;101512.98;105267;1298;59020;-85
2022/10/20 02:30:22;;;;;;;7.20;5.10;;;;;;;4.50;91.36;101505.78;105143;1291;74160;-84
2022/10/20 02:32:51;;;;;;;8.40;5.00;;;;;;;4.47;91.19;101497.17;105208;1291;71275;-84
2022/10/20 02:35:28;;;;;;;9.00;5.10;;;;;;;4.49;91.33;101493.21;105144;1297;71800;-84
2022/10/20 02:37:55;;;;;;;7.70;4.90;;;;;;;4.48;91.07;101488.05;104964;1302;62024;-84
2022/10/20 02:40:22;;;;;;;8.00;4.90;;;;;;;4.46;91.33;101480.81;105283;1296;59000;-85
2022/10/20 02:42:48;;;;;;;5.90;4.50;;;;;;;4.45;91.15;101483.86;105367;1294;73139;-84
2022/10/20 02:45:15;;;;;;;7.90;5.10;;;;;;;4.44;91.34;101482.40;105308;1291;71046;-84
2022/10/20 02:47:42;;;;;;;9.10;4.50;;;;;;;4.43;91.65;101482.64;105328;1290;72661;-84
2022/10/20 02:50:08;;;;;;;8.00;4.90;;;;;;;4.43;91.78;101480.70;105407;1297;63875;-85
2022/10/20 02:52:36;;;;;;;9.10;4.40;;;;;;;4.44;91.71;101472.23;105333;1296;59514;-84
2022/10/20 02:55:04;;;;;;;7.70;4.70;;;;;;;4.44;91.88;101460.83;105470;1297;74162;-85
2022/10/20 02:57:31;;;;;;;8.10;5.40;;;;;;;4.44;91.82;101452.23;105345;1296;71540;-84
2022/10/20 02:59:58;;;;;;;8.90;4.80;;;;;;;4.45;91.97;101455.14;105445;1295;73392;-84
2022/10/20 03:02:24;;;;;;;8.60;4.80;;;;;;;4.46;92.00;101450.89;104910;1295;679657;-84
2022/10/20 03:04:50;;;;;;;7.60;5.00;;;;;;;4.47;91.97;101451.65;105344;1296;58965;-85
2022/10/20 03:07:18;;;;;;;7.10;5.00;;;;;;;4.48;91.97;101448.82;105333;1296;59265;-84
2022/10/20 03:09:44;;;;;;;7.50;4.90;;;;;;;4.47;91.93;101448.00;105357;1297;69965;-84
2022/10/20 03:12:11;;;;;;;8.10;5.20;;;;;;;4.47;92.02;101447.61;105394;1275;71902;-84
2022/10/20 03:14:38;;;;;;;8.30;5.30;;;;;;;4.46;92.25;101440.04;105330;1290;59611;-85
2022/10/20 03:17:04;;;;;;;8.10;5.00;;;;;;;4.47;92.01;101441.16;105307;1274;59526;-84
2022/10/20 03:19:31;;;;;;;8.20;5.00;;;;;;;4.47;91.94;101437.85;105187;1303;59957;-85
2022/10/20 03:21:57;;;;;;;9.30;5.30;;;;;;;4.47;92.07;101433.14;105254;1298;59039;-84
2022/10/20 03:24:24;;;;;;;9.30;5.50;;;;;;;4.46;91.94;101433.89;105298;1296;60023;-84
2022/10/20 03:26:50;;;;;;;6.90;5.20;;;;;;;4.47;92.07;101431.73;105385;1274;58945;-84
2022/10/20 03:29:17;;;;;;;8.50;4.80;;;;;;;4.47;92.02;101433.80;105399;1288;58894;-85
2022/10/20 03:31:44;;;;;;;9.00;5.10;;;;;;;4.47;92.03;101433.48;105325;1290;74168;-85
2022/10/20 03:34:11;;;;;;;9.20;5.00;;;;;;;4.46;92.13;101428.09;105340;1278;70124;-85
2022/10/20 03:36:38;;;;;;;7.60;5.30;;;;;;;4.45;91.98;101426.59;105417;1296;73727;-85
2022/10/20 03:39:04;;;;;;;8.90;4.80;;;;;;;4.44;91.84;101424.23;105391;1296;59189;-84
2022/10/20 03:41:31;;;;;;;9.00;5.40;;;;;;;4.43;91.83;101421.12;105339;1298;64291;-84
2022/10/20 03:44:00;;;;;;;10.30;5.50;;;;;;;4.43;92.01;101415.74;105421;1294;72494;-84
2022/10/20 03:46:26;;;;;;;8.10;4.90;;;;;;;4.42;91.96;101415.14;105505;1288;69428;-84
2022/10/20 03:48:53;;;;;;;8.80;4.90;;;;;;;4.40;91.78;101417.53;105509;1285;71578;-85
2022/10/20 03:51:20;;;;;;;8.90;4.80;;;;;;;4.38;91.91;101408.77;105460;1293;59261;-84
2022/10/20 03:53:46;;;;;;;8.90;4.80;;;;;;;4.36;91.79;101407.52;105378;1289;60146;-84
2022/10/20 03:56:17;;;;;;;8.50;5.30;;;;;;;4.35;91.74;101404.49;105319;1274;59542;-85
2022/10/20 03:58:44;;;;;;;7.40;4.60;;;;;;;4.32;91.60;101401.73;105443;1298;70513;-84
2022/10/20 04:01:16;;;;;;;8.10;4.70;;;;;;;4.29;91.42;101404.92;105571;1293;72022;-84
2022/10/20 04:03:45;;;;;;;7.10;4.70;;;;;;;4.24;91.57;101402.27;105504;1294;61166;-85
2022/10/20 04:06:12;;;;;;;8.10;4.90;;;;;;;4.21;91.69;101397.46;105512;1267;59572;-84
2022/10/20 04:08:39;;;;;;;7.40;5.10;;;;;;;4.20;92.03;101396.10;105499;1295;74402;-85
2022/10/20 04:11:06;;;;;;;7.70;4.60;;;;;;;4.19;92.04;101393.55;105535;1295;69061;-85
2022/10/20 04:13:32;;;;;;;8.30;4.60;;;;;;;4.19;92.10;101389.02;105340;1267;73645;-85
2022/10/20 04:15:59;;;;;;;8.20;4.90;;;;;;;4.20;92.48;101381.98;105465;1277;59379;-85
2022/10/20 04:18:25;;;;;;;8.50;4.80;;;;;;;4.21;92.59;101384.52;105495;1287;59574;-85
2022/10/20 04:20:52;;;;;;;7.20;4.30;;;;;;;4.21;92.57;101386.23;105246;1269;58925;-85
2022/10/20 04:25:47;;;;;;;6.80;4.50;;;;;;;4.21;92.44;101376.44;105143;1269;73636;-85
2022/10/20 04:28:15;;;;;;;9.70;4.60;;;;;;;4.22;92.80;101366.41;105352;1266;59945;-86
2022/10/20 04:30:45;;;;;;;7.60;4.90;;;;;;;4.24;93.05;101359.07;105210;1273;60637;-85
2022/10/20 04:33:15;;;;;;;6.90;4.40;;;;;;;4.27;93.27;101349.91;105543;1270;74518;-85
2022/10/20 04:35:42;;;;;;;8.30;4.80;;;;;;;4.31;93.43;101338.23;105410;1290;73816;-85
2022/10/20 04:38:09;;;;;;;9.50;4.70;;;;;;;4.35;93.72;101329.48;105369;1296;72456;-85
2022/10/20 04:40:35;;;;;;;9.90;4.30;;;;;;;4.40;93.69;101327.31;105486;1274;59838;-85
2022/10/20 04:43:02;;;;;;;7.00;3.90;;;;;;;4.44;93.65;101321.25;105331;1292;59468;-85
2022/10/20 04:45:28;;;;;;;6.50;3.90;;;;;;;4.47;93.23;101319.62;105318;1296;73650;-85
2022/10/20 04:47:55;;;;;;;6.70;4.40;;;;;;;4.50;93.29;101319.39;105366;1273;59420;-85
2022/10/20 04:50:22;;;;;;;6.30;4.00;;;;;;;4.52;93.01;101320.97;105262;1266;70936;-85
2022/10/20 04:52:50;;;;;;;7.60;4.30;;;;;;;4.53;92.94;101316.75;105548;1271;59724;-85
2022/10/20 04:55:17;;;;;;;8.20;4.20;;;;;;;4.54;92.70;101311.90;105271;1283;61158;-85
2022/10/20 04:57:44;;;;;;;6.70;4.40;;;;;;;4.55;92.74;101305.52;105505;1294;73088;-85
2022/10/20 05:00:11;;;;;;;6.20;4.00;;;;;;;4.56;92.74;101298.66;105342;1298;71336;-76
2022/10/20 05:02:38;;;;;;;6.50;4.10;;;;;;;4.58;92.90;101301.63;105438;1287;72421;-76
2022/10/20 05:05:05;;;;;;;8.00;3.80;;;;;;;4.61;92.94;101304.55;105429;1291;60042;-76
2022/10/20 05:07:31;;;;;;;7.40;4.30;;;;;;;4.64;92.80;101304.48;105478;1295;59011;-75
2022/10/20 05:09:57;;;;;;;7.20;3.60;;;;;;;4.67;92.62;101295.15;105435;1279;59806;-75
2022/10/20 05:12:24;;;;;;;6.50;3.30;;;;;;;4.71;92.57;101287.98;105525;1294;59351;-75
2022/10/20 05:14:50;;;;;;;6.40;3.60;;;;;;;4.74;92.37;101288.66;105529;1284;60241;-75
2022/10/20 05:17:17;;;;;;;6.80;3.60;;;;;;;4.75;92.27;101286.02;105544;1280;59239;-75
2022/10/20 05:19:44;;;;;;;5.50;3.20;;;;;;;4.77;92.04;101282.75;105386;1292;58979;-76
2022/10/20 05:22:11;;;;;;;7.60;3.80;;;;;;;4.77;91.82;101279.23;105488;1287;73817;-75
2022/10/20 05:24:37;;;;;;;7.30;3.40;;;;;;;4.76;91.79;101279.30;105508;1287;59790;-75
2022/10/20 05:27:03;;;;;;;8.10;3.90;;;;;;;4.76;91.48;101284.78;105369;1296;59511;-75
2022/10/20 05:29:30;;;;;;;6.40;3.60;;;;;;;4.74;91.50;101281.20;105489;1294;61605;-76
2022/10/20 05:31:57;;;;;;;5.90;3.40;;;;;;;4.74;91.42;101276.34;105452;1288;58901;-76
2022/10/20 05:34:24;;;;;;;6.20;3.80;;;;;;;4.74;91.65;101271.29;105493;1287;75490;-76
2022/10/20 05:36:52;;;;;;;6.50;3.50;;;;;;;4.73;91.98;101273.92;105508;1287;71234;-76
2022/10/20 05:39:19;;;;;;;5.60;3.70;;;;;;;4.74;92.02;101276.83;105447;1294;71163;-76
2022/10/20 05:41:47;;;;;;;7.40;3.90;;;;;;;4.75;92.14;101281.48;105458;1295;61198;-76
2022/10/20 05:44:13;;;;;;;7.50;3.90;;;;;;;4.78;92.12;101279.55;105300;1290;59025;-77
2022/10/20 05:46:41;;;;;;;6.10;3.90;;;;;;;4.80;91.96;101276.22;105293;1294;73014;-77
2022/10/20 05:49:16;;;;;;;7.20;4.20;;;;;;;4.82;92.18;101280.95;105327;1297;72039;-76
2022/10/20 05:51:44;;;;;;;6.90;3.80;;;;;;;4.85;92.31;101285.98;105266;1296;71197;-76
2022/10/20 05:54:12;;;;;;;6.60;4.00;;;;;;;4.87;92.23;101271.42;105387;1291;59698;-76
2022/10/20 05:56:42;;;;;;;6.80;4.30;;;;;;;4.87;92.14;101266.84;105206;1296;58975;-75
2022/10/20 05:59:09;;;;;;;7.90;4.20;;;;;;;4.89;92.00;101266.84;105180;1293;73898;-75
2022/10/20 06:01:48;;;;;;;6.40;4.50;;;;;;;4.89;91.95;101261.09;105386;1291;69193;-75
2022/10/20 06:04:22;;;;;;;9.80;4.90;;;;;;;4.90;92.23;101264.36;105409;1294;72822;-74
2022/10/20 06:06:50;;;;;;;8.10;4.80;;;;;;;4.93;92.35;101269.55;105210;1297;60455;-74
2022/10/20 06:09:18;;;;;;;6.90;4.50;;;;;;;4.97;92.42;101269.22;105321;1298;59502;-75
2022/10/20 06:11:45;;;;;;;8.00;5.10;;;;;;;5.00;92.48;101270.95;105306;1296;73523;-75
2022/10/20 06:14:12;;;;;;;7.80;4.80;;;;;;;5.01;92.47;101274.33;105362;1297;69601;-75
2022/10/20 06:16:38;;;;;;;7.00;5.10;;;;;;;5.04;92.32;101277.07;105318;1296;70192;-75
2022/10/20 06:19:06;;;;;;;8.50;5.50;;;;;;;5.06;92.47;101276.73;105322;1297;61258;-75
2022/10/20 06:21:33;;;;;;;7.50;5.20;;;;;;;5.10;92.70;101272.22;105397;1293;59862;-75
2022/10/20 06:24:03;;;;;;;7.10;5.40;;;;;;;5.15;92.65;101272.15;105256;1297;75137;-75
2022/10/20 06:26:32;;;;;;;9.30;5.90;;;;;;;5.21;92.60;101270.42;105407;1297;69843;-75
2022/10/20 06:28:59;;;;;;;8.80;5.90;;;;;;;5.26;92.41;101267.36;105215;1298;71615;-75
2022/10/20 06:31:32;;;;;;;7.30;5.50;;;;;;;5.32;92.37;101265.85;105290;1297;59611;-76
2022/10/20 06:34:02;;;;;;;7.70;5.60;;;;;;;5.37;92.32;101261.75;105246;1297;60289;-76
2022/10/20 06:36:29;;;;;;;9.50;5.60;;;;;;;5.41;92.27;101260.70;105284;1297;73155;-76
2022/10/20 06:38:57;;;;;;;8.90;5.80;;;;;;;5.46;92.06;101265.38;105329;1292;59339;-75
2022/10/20 06:41:25;;;;;;;7.90;5.80;;;;;;;5.51;91.95;101259.38;105385;1297;72949;-75
2022/10/20 06:43:59;;;;;;;12.60;6.40;;;;;;;5.57;91.86;101258.70;105447;1295;59055;-75
2022/10/20 06:46:30;;;;;;;10.30;5.90;;;;;;;5.63;91.78;101261.52;105415;1297;59172;-75
2022/10/20 06:49:02;;;;;;;8.10;5.70;;;;;;;5.69;91.72;101264.02;105290;1291;73412;-75
2022/10/20 06:51:29;;;;;;;8.50;6.00;;;;;;;5.74;91.62;101264.98;105310;1293;70531;-75
2022/10/20 06:53:57;;;;;;;8.20;5.10;;;;;;;5.79;91.60;101264.63;105264;1291;71602;-75
2022/10/20 06:56:27;;;;;;;9.60;6.40;;;;;;;5.83;91.35;101264.43;105280;1293;62012;-75
2022/10/20 06:58:56;;;;;;;8.90;6.60;;;;;;;5.88;91.23;101255.52;105316;1294;59962;-75
2022/10/20 07:01:28;;;;;;;8.70;6.00;;;;;;;5.93;91.13;101255.09;105394;1297;73207;-76
2022/10/20 07:04:00;;;;;;;7.90;6.20;;;;;;;6.00;90.86;101252.48;105322;1293;69870;-76
2022/10/20 07:06:38;;;;;;;8.70;6.50;;;;;;;6.05;90.75;101249.38;105327;1300;70423;-76
2022/10/20 07:09:07;;;;;;;9.40;6.70;;;;;;;6.12;90.68;101246.48;105359;1297;59672;-76
2022/10/20 07:11:34;;;;;;;8.80;6.40;;;;;;;6.19;90.46;101249.75;105394;1297;60969;-76
2022/10/20 07:14:02;;;;;;;9.40;6.00;;;;;;;6.25;90.43;101253.27;105325;1298;73757;-76
2022/10/20 07:16:33;;;;;;;9.20;6.60;;;;;;;6.29;90.01;101251.66;105329;1283;70671;-74
2022/10/20 07:19:02;;;;;;;9.50;6.30;;;;;;;6.36;89.98;101247.45;105456;1294;71357;-75
2022/10/20 07:21:30;;;;;;;9.20;6.40;;;;;;;6.40;89.85;101238.29;105501;1297;60895;-74
2022/10/20 07:24:04;;;;;;;8.20;6.10;;;;;;;6.46;89.86;101233.70;105420;1298;59890;-75
2022/10/20 07:26:34;;;;;;;8.30;6.50;;;;;;;6.53;89.48;101228.55;105413;1289;73130;-75
2022/10/20 07:29:02;;;;;;;7.50;5.90;;;;;;;6.58;89.70;101220.16;105405;1297;71112;-75
2022/10/20 07:31:32;;;;;;;8.70;6.20;;;;;;;6.63;89.42;101216.02;105012;1295;72375;-74
2022/10/20 07:33:59;;;;;;;9.70;6.70;;;;;;;6.71;89.34;101213.95;105455;1291;59419;-75
2022/10/20 07:36:41;;;;;;;9.00;6.40;;;;;;;6.80;88.98;101211.95;105528;1295;59067;-75
2022/10/20 07:39:12;;;;;;;9.10;6.40;;;;;;;6.89;88.68;101211.67;105438;1298;73991;-75
2022/10/20 07:41:39;;;;;;;9.20;6.20;;;;;;;6.97;88.24;101208.51;105495;1290;69828;-75
2022/10/20 07:44:06;;;;;;;9.60;6.30;;;;;;;7.07;87.81;101207.55;105507;1288;71200;-75
2022/10/20 07:46:33;;;;;;;10.30;6.50;;;;;;;7.18;87.67;101205.11;105510;1294;60393;-75
2022/10/20 07:49:00;;;;;;;9.20;6.30;;;;;;;7.29;87.28;101200.29;105472;1294;59315;-75
2022/10/20 07:51:46;;;;;;;9.90;6.50;;;;;;;7.42;87.15;101200.17;105510;1290;74980;-75
2022/10/20 07:54:13;;;;;;;8.00;5.70;;;;;;;7.52;86.62;101201.47;105514;1288;59211;-75
2022/10/20 07:56:42;;;;;;;9.20;6.40;;;;;;;7.64;86.42;101193.86;105571;1280;71584;-75
2022/10/20 07:59:10;;;;;;;7.60;6.30;;;;;;;7.77;86.17;101193.14;105388;1297;60919;-75
2022/10/20 08:01:37;;;;;;;9.40;6.40;;;;;;;7.91;85.71;101204.23;105436;1297;59383;-75
2022/10/20 08:04:03;;;;;;;8.00;6.30;;;;;;;8.03;85.09;101202.17;105478;1290;73565;-75
2022/10/20 08:06:30;;;;;;;9.30;6.20;;;;;;;8.12;84.42;101195.80;105431;1290;71348;-76
2022/10/20 08:09:00;;;;;;;8.30;6.30;;;;;;;8.22;84.17;101192.45;105477;1294;72378;-75
2022/10/20 08:11:26;;;;;;;9.30;5.90;;;;;;;8.31;83.66;101184.52;105466;1297;60958;-75
2022/10/20 08:13:53;;;;;;;6.90;5.40;;;;;;;8.43;83.25;101169.85;105583;1295;58897;-75
2022/10/20 08:16:20;;;;;;;7.70;5.60;;;;;;;8.51;82.59;101172.20;105360;1295;61283;-75
2022/10/20 08:18:51;;;;;;;8.30;5.80;;;;;;;8.62;82.24;101169.61;105395;1289;72279;-74
2022/10/20 08:21:31;;;;;;;8.00;5.30;;;;;;;8.76;82.60;101172.40;105453;1284;74770;-75
2022/10/20 08:23:58;;;;;;;7.40;5.60;;;;;;;8.91;82.37;101177.42;105346;1290;59012;-75
2022/10/20 08:26:26;;;;;;;7.40;5.80;;;;;;;9.06;82.06;101181.48;105451;1297;58954;-74
2022/10/20 08:28:53;;;;;;;6.90;5.60;;;;;;;9.19;81.49;101178.24;105401;1290;74025;-75
2022/10/20 08:31:22;;;;;;;6.50;5.10;;;;;;;9.28;80.51;101172.56;104704;1291;68877;-75
2022/10/20 08:33:48;;;;;;;8.20;5.70;;;;;;;9.29;79.43;101176.27;105200;1290;70354;-75
2022/10/20 08:36:19;;;;;;;9.40;5.60;;;;;;;9.34;79.58;101175.97;105288;1290;59921;-75
2022/10/20 08:38:47;;;;;;;6.70;5.10;;;;;;;9.43;80.03;101175.84;105370;1295;59236;-73
2022/10/20 08:41:23;;;;;;;7.00;5.40;;;;;;;9.45;79.22;101175.23;105309;1298;72284;-74
2022/10/20 08:43:52;;;;;;;8.80;5.80;;;;;;;9.49;78.97;101175.95;105228;1293;70699;-74
2022/10/20 08:46:26;;;;;;;8.00;5.40;;;;;;;9.51;78.72;101165.69;105374;1290;73414;-75
2022/10/20 08:51:27;;;;;;;7.30;5.60;;;;;;;9.52;78.41;101151.25;105398;1298;60048;-74
2022/10/20 08:53:57;;;;;;;7.50;5.30;;;;;;;9.55;78.56;101152.90;104936;1293;73446;-74
2022/10/20 08:56:28;;;;;;;7.90;5.60;;;;;;;9.61;78.36;101148.57;105240;1300;69726;-75
2022/10/20 08:58:55;;;;;;;7.50;5.70;;;;;;;9.75;78.75;101144.98;105361;1297;70573;-75
2022/10/20 09:01:25;;;;;;;7.30;5.90;;;;;;;9.88;78.39;101138.50;105363;1290;60117;-75
2022/10/20 09:04:11;;;;;;;7.30;5.60;;;;;;;9.99;77.75;101136.11;105210;1297;59394;-75
2022/10/20 09:06:42;;;;;;;7.30;5.50;;;;;;;10.10;77.24;101136.91;105443;1290;74469;-75
2022/10/20 09:09:17;;;;;;;7.80;5.70;;;;;;;10.23;77.03;101134.56;105413;1290;69676;-75
2022/10/20 09:11:44;;;;;;;6.10;5.10;;;;;;;10.28;76.62;101135.95;105309;1293;71523;-75
2022/10/20 09:14:12;;;;;;;8.20;5.70;;;;;;;10.34;76.47;101140.27;105413;1296;60263;-75
2022/10/20 09:16:40;;;;;;;7.30;5.30;;;;;;;10.40;76.35;101147.73;105384;1290;59084;-74
2022/10/20 09:19:26;;;;;;;7.70;5.10;;;;;;;10.52;76.43;101148.78;105263;1296;73464;-74
2022/10/20 09:21:56;;;;;;;6.70;5.10;;;;;;;10.59;75.61;101142.42;105226;1298;69534;-75
2022/10/20 09:24:28;;;;;;;6.50;5.10;;;;;;;10.63;75.22;101126.21;105252;1300;72401;-75
2022/10/20 09:26:55;;;;;;;7.30;5.30;;;;;;;10.69;75.11;101118.95;105321;1298;60633;-74
2022/10/20 09:29:39;;;;;;;5.80;4.90;;;;;;;10.75;74.79;101122.48;105302;1297;60213;-74
2022/10/20 09:32:31;;;;;;;6.10;5.00;;;;;;;10.82;74.21;101123.42;105401;1288;74370;-74
2022/10/20 09:35:14;;;;;;;6.70;5.30;;;;;;;10.94;74.21;101121.80;105457;1297;69925;-75
2022/10/20 09:37:43;;;;;;;8.40;5.10;;;;;;;11.03;73.82;101126.30;105416;1297;59019;-75
2022/10/20 09:40:15;;;;;;;7.70;4.90;;;;;;;11.15;73.97;101130.55;105309;1283;61771;-75
2022/10/20 09:42:54;;;;;;;6.10;4.70;;;;;;;11.25;73.78;101128.75;105264;1297;60141;-75
2022/10/20 09:45:27;;;;;;;5.80;5.10;;;;;;;11.30;73.42;101125.52;105267;1297;74398;-75
2022/10/20 09:48:00;;;;;;;6.20;5.30;;;;;;;11.44;73.63;101120.50;105258;1292;70857;-75
2022/10/20 09:50:34;;;;;;;5.60;4.40;;;;;;;11.61;73.58;101122.44;105276;1292;72451;-75
2022/10/20 09:53:05;;;;;;;6.60;4.80;;;;;;;11.65;72.01;101120.90;105375;1298;61371;-75
2022/10/20 09:55:40;;;;;;;7.50;5.10;;;;;;;11.72;71.98;101116.95;104969;1298;58932;-74
2022/10/20 09:58:19;;;;;;;8.10;5.00;;;;;;;11.92;72.36;101113.04;105180;1288;72227;-75
2022/10/20 10:00:55;;;;;;;6.20;4.90;;;;;;;12.09;71.71;101104.55;105330;1289;70961;-76
2022/10/20 10:03:25;;;;;;;6.10;5.00;;;;;;;12.22;70.95;101100.73;105380;1281;72732;-75
2022/10/20 10:05:57;;;;;;;6.60;4.80;;;;;;;12.34;70.23;101092.52;105408;1290;61105;-75
2022/10/20 10:08:27;;;;;;;6.20;5.00;;;;;;;12.49;70.30;101078.83;105245;1298;60346;-74
2022/10/20 10:10:59;;;;;;;6.70;5.00;;;;;;;12.65;69.39;101066.98;105360;1289;73353;-74
2022/10/20 10:13:28;;;;;;;7.60;4.90;;;;;;;12.79;67.59;101067.04;105364;1290;70417;-74
2022/10/20 10:16:00;;;;;;;6.90;4.90;;;;;;;12.83;66.31;101067.52;105363;1297;72335;-74
2022/10/20 10:18:27;;;;;;;5.50;4.10;;;;;;;12.85;66.63;101067.88;105215;1290;60501;-74
2022/10/20 10:21:00;;;;;;;7.00;4.60;;;;;;;12.79;65.99;101069.25;105347;1297;59481;-74
2022/10/20 10:23:29;;;;;;;7.00;4.70;;;;;;;12.81;66.20;101070.61;105361;1297;73313;-74
2022/10/20 10:25:56;;;;;;;6.60;5.00;;;;;;;12.97;67.19;101069.42;105313;1292;70851;-75
2022/10/20 10:28:30;;;;;;;6.50;4.80;;;;;;;13.20;67.13;101063.44;105310;1296;72484;-75
2022/10/20 10:31:20;;;;;;;6.90;4.70;;;;;;;13.37;67.11;101053.74;105254;1297;61177;-74
2022/10/20 10:33:49;;;;;;;8.20;5.00;;;;;;;13.55;66.53;101045.48;105333;1297;60180;-74
2022/10/20 10:36:31;;;;;;;6.80;4.70;;;;;;;13.61;65.54;101037.56;105059;1291;74542;-74
2022/10/20 10:38:58;;;;;;;8.40;4.70;;;;;;;13.63;64.60;101032.66;105400;1289;71150;-74
2022/10/20 10:41:33;;;;;;;6.90;4.60;;;;;;;13.65;64.35;101030.45;105175;1300;71131;-74
2022/10/20 10:44:16;;;;;;;7.50;5.10;;;;;;;13.64;64.40;101019.75;105398;1291;60562;-74
2022/10/20 10:47:09;;;;;;;8.20;5.70;;;;;;;13.65;64.53;101021.38;105371;1298;59283;-74
2022/10/20 10:50:14;;;;;;;7.10;5.20;;;;;;;13.67;64.43;101016.48;104982;1293;74417;-74
2022/10/20 10:52:57;;;;;;;7.00;5.00;;;;;;;13.79;64.37;101013.86;105280;1300;71020;-74
2022/10/20 10:55:32;;;;;;;6.80;4.90;;;;;;;13.84;63.79;101010.89;105305;1291;73096;-74
2022/10/20 10:58:39;;;;;;;8.40;4.70;;;;;;;13.89;63.55;100999.94;105392;1297;62170;-74
2022/10/20 11:01:30;;;;;;;6.30;4.70;;;;;;;13.94;63.48;100993.35;105197;1285;59264;-74
2022/10/20 11:04:30;;;;;;;6.50;4.80;;;;;;;13.95;63.41;100992.86;105441;1290;72455;-74
2022/10/20 11:07:08;;;;;;;6.60;4.70;;;;;;;14.05;63.90;100991.07;105398;1290;69566;-74
2022/10/20 11:10:00;;;;;;;7.30;5.20;;;;;;;14.11;63.50;100992.15;105334;1299;72607;-74
2022/10/20 11:12:47;;;;;;;8.20;4.70;;;;;;;14.24;63.29;100993.64;105421;1297;60483;-74
2022/10/20 11:15:13;;;;;;;6.00;4.60;;;;;;;14.20;62.20;100988.30;105362;1298;58956;-74
2022/10/20 11:18:00;;;;;;;6.80;4.30;;;;;;;14.22;62.47;100982.94;105408;1297;73742;-74
2022/10/20 11:20:46;;;;;;;7.30;5.10;;;;;;;14.25;62.84;100972.33;105436;1297;69402;-74
2022/10/20 11:23:32;;;;;;;6.60;4.90;;;;;;;14.38;62.58;100958.89;105361;1296;72637;-74
2022/10/20 11:26:11;;;;;;;8.40;5.60;;;;;;;14.49;62.39;100957.64;105455;1290;62020;-74
2022/10/20 11:28:48;;;;;;;6.20;5.20;;;;;;;14.81;62.40;100950.79;105399;1297;59101;-75
2022/10/20 11:31:24;;;;;;;7.70;5.50;;;;;;;15.01;61.09;100941.91;105405;1297;75182;-74
2022/10/20 11:33:59;;;;;;;7.30;4.90;;;;;;;15.21;61.14;100944.13;105316;1297;71259;-75
2022/10/20 11:36:34;;;;;;;7.40;5.10;;;;;;;15.45;60.76;100942.83;105318;1297;72587;-74
2022/10/20 11:39:02;;;;;;;6.10;4.70;;;;;;;15.74;59.86;100926.16;105362;1297;62019;-74
2022/10/20 11:41:48;;;;;;;6.90;4.20;;;;;;;15.94;57.72;100919.95;105339;1296;60225;-74
2022/10/20 11:44:30;;;;;;;6.80;4.00;;;;;;;16.16;56.71;100925.02;105434;1289;73169;-74
2022/10/20 11:47:02;;;;;;;6.40;4.80;;;;;;;16.36;56.89;100928.75;105238;1297;68806;-74